Time;durP1;ratioP1;P1;durP2;ratioP2;P2;SDS_P1;SDS_P2;PMS_P1;PMS_P2;Temp;Humidity;BMP_temperature;BMP_pressure;BME280_temperature;BME280_humidity;BME280_pressure;Samples;Min_cycle;Max_cycle;Signal;HPM_P1;HPM_P2
2021/10/07 00:00:45;;;;;;;2.50;2.28;;;;;;;5.55;100.00;96584.88;6365595;22;20054;-63
2021/10/07 00:03:10;;;;;;;2.42;2.22;;;;;;;5.58;100.00;96583.84;6365999;22;20457;-63
2021/10/07 00:05:36;;;;;;;2.83;2.63;;;;;;;5.55;100.00;96582.28;6365828;22;20473;-63
2021/10/07 00:08:01;;;;;;;2.28;2.10;;;;;;;5.50;100.00;96581.66;6365726;22;20006;-63
2021/10/07 00:10:27;;;;;;;3.88;2.78;;;;;;;5.48;100.00;96585.31;6365315;22;20006;-63
2021/10/07 00:12:53;;;;;;;2.50;2.30;;;;;;;5.43;100.00;96576.00;6364802;22;20026;-63
2021/10/07 00:15:19;;;;;;;4.35;2.45;;;;;;;5.40;100.00;96578.75;6365264;22;20001;-63
2021/10/07 00:17:45;;;;;;;2.33;2.08;;;;;;;5.39;100.00;96576.25;6365296;22;20003;-63
2021/10/07 00:20:13;;;;;;;6.13;2.58;;;;;;;5.38;100.00;96579.78;6365670;22;20333;-63
2021/10/07 00:22:39;;;;;;;4.68;2.28;;;;;;;5.36;100.00;96576.41;6365441;22;20015;-64
2021/10/07 00:25:08;;;;;;;13.23;2.53;;;;;;;5.35;100.00;96572.97;6365525;22;20074;-64
2021/10/07 00:27:37;;;;;;;1.95;1.85;;;;;;;5.31;100.00;96571.44;6365713;22;19999;-63
2021/10/07 00:30:10;;;;;;;3.25;2.58;;;;;;;5.32;100.00;96573.13;6365605;22;20002;-63
2021/10/07 00:32:40;;;;;;;2.15;2.03;;;;;;;5.29;100.00;96578.53;6365953;22;20033;-64
2021/10/07 00:35:33;;;;;;;2.20;2.00;;;;;;;5.23;100.00;96574.50;6365635;22;19999;-63
2021/10/07 00:40:36;;;;;;;2.35;2.15;;;;;;;5.23;100.00;96579.72;6364945;22;20017;-63
2021/10/07 00:43:01;;;;;;;5.45;2.00;;;;;;;5.17;100.00;96574.84;6364997;22;20707;-63
2021/10/07 00:45:27;;;;;;;2.28;2.08;;;;;;;5.14;100.00;96567.19;6365157;22;20045;-63
2021/10/07 00:47:52;;;;;;;2.63;1.80;;;;;;;5.14;100.00;96560.19;6365918;22;20085;-63
2021/10/07 00:50:17;;;;;;;6.38;1.95;;;;;;;5.11;100.00;96560.38;6362165;22;20338;-63
2021/10/07 00:52:43;;;;;;;2.10;1.75;;;;;;;5.10;100.00;96557.88;6364921;22;20006;-64
2021/10/07 00:55:12;;;;;;;3.05;1.90;;;;;;;5.08;100.00;96563.16;6365719;22;20052;-63
2021/10/07 00:57:39;;;;;;;2.00;1.73;;;;;;;5.08;100.00;96554.47;6365222;22;20003;-63
2021/10/07 01:00:05;;;;;;;2.28;1.85;;;;;;;5.01;100.00;96551.38;6365456;22;20003;-64
2021/10/07 01:02:30;;;;;;;2.00;1.75;;;;;;;4.99;100.00;96548.03;6365480;22;19998;-64
2021/10/07 01:04:56;;;;;;;2.08;1.90;;;;;;;4.98;100.00;96559.41;6365308;22;20003;-64
2021/10/07 01:07:22;;;;;;;2.13;1.92;;;;;;;4.93;100.00;96561.41;6365034;22;20431;-64
2021/10/07 01:09:48;;;;;;;2.08;1.88;;;;;;;4.92;100.00;96555.34;6365364;22;20556;-64
2021/10/07 01:12:13;;;;;;;1.65;1.58;;;;;;;4.91;100.00;96558.03;6337473;22;20021;-64
2021/10/07 01:15:03;;;;;;;2.55;1.70;;;;;;;4.85;100.00;96557.47;6365478;22;20013;-63
2021/10/07 01:17:30;;;;;;;3.60;1.70;;;;;;;4.82;100.00;96557.63;6363660;22;20006;-64
2021/10/07 01:20:00;;;;;;;1.75;1.65;;;;;;;4.78;100.00;96548.28;6365612;22;20494;-64
2021/10/07 01:22:27;;;;;;;2.10;2.00;;;;;;;4.76;100.00;96552.75;6365369;22;20387;-63
2021/10/07 01:24:55;;;;;;;4.10;1.90;;;;;;;4.75;100.00;96547.63;6365656;22;20016;-64
2021/10/07 01:27:24;;;;;;;2.10;2.00;;;;;;;4.72;100.00;96543.41;6364939;22;20150;-64
2021/10/07 01:30:02;;;;;;;3.45;1.95;;;;;;;4.72;100.00;96543.41;6364897;22;20013;-64
2021/10/07 01:32:28;;;;;;;2.05;1.80;;;;;;;4.72;100.00;96536.44;6365687;22;20003;-64
2021/10/07 01:34:53;;;;;;;1.73;1.55;;;;;;;4.73;100.00;96534.66;6365063;22;20421;-65
2021/10/07 01:37:19;;;;;;;4.82;2.03;;;;;;;4.70;100.00;96535.69;6365402;22;20011;-64
2021/10/07 01:39:44;;;;;;;2.22;1.90;;;;;;;4.64;100.00;96525.59;6364970;22;20002;-64
2021/10/07 01:42:10;;;;;;;1.88;1.70;;;;;;;4.59;100.00;96523.22;6365047;22;20013;-64
2021/10/07 01:44:36;;;;;;;3.25;1.80;;;;;;;4.59;100.00;96522.38;6365130;22;20026;-64
2021/10/07 01:47:01;;;;;;;5.10;2.10;;;;;;;4.56;100.00;96523.41;6365065;22;20002;-64
2021/10/07 01:49:26;;;;;;;1.95;1.73;;;;;;;4.52;100.00;96521.03;6365627;22;20439;-64
2021/10/07 01:51:52;;;;;;;1.77;1.67;;;;;;;4.47;100.00;96513.44;6364646;22;20003;-64
2021/10/07 01:54:18;;;;;;;4.32;2.20;;;;;;;4.47;100.00;96512.63;6365499;22;19998;-63
2021/10/07 01:56:44;;;;;;;3.05;1.70;;;;;;;4.46;100.00;96516.97;6366488;22;20445;-64
2021/10/07 01:59:10;;;;;;;1.90;1.80;;;;;;;4.46;100.00;96518.78;6366910;22;20073;-63
2021/10/07 02:01:36;;;;;;;1.83;1.60;;;;;;;4.40;100.00;96512.13;6367643;22;20090;-64
2021/10/07 02:04:01;;;;;;;2.35;2.15;;;;;;;4.38;100.00;96500.94;6366048;22;20411;-64
2021/10/07 02:06:28;;;;;;;6.70;1.83;;;;;;;4.37;100.00;96496.63;6367656;22;20017;-64
2021/10/07 02:08:53;;;;;;;1.90;1.80;;;;;;;4.38;100.00;96503.53;6366234;22;20430;-63
2021/10/07 02:11:18;;;;;;;4.28;1.75;;;;;;;4.36;100.00;96500.19;6365487;22;20002;-63
2021/10/07 02:13:44;;;;;;;1.70;1.60;;;;;;;4.31;100.00;96497.81;6365618;22;20388;-64
2021/10/07 02:16:09;;;;;;;1.95;1.80;;;;;;;4.33;100.00;96516.00;6365864;22;20009;-64
2021/10/07 02:18:35;;;;;;;2.05;1.80;;;;;;;4.29;100.00;96495.28;6366705;22;20029;-64
2021/10/07 02:21:00;;;;;;;4.82;2.17;;;;;;;4.20;100.00;96503.59;6365776;22;20002;-64
2021/10/07 02:23:26;;;;;;;2.45;1.70;;;;;;;4.19;100.00;96504.53;6365901;22;20025;-64
2021/10/07 02:25:51;;;;;;;1.70;1.60;;;;;;;4.23;100.00;96505.22;6365560;22;20357;-64
2021/10/07 02:28:16;;;;;;;2.10;1.55;;;;;;;4.28;100.00;96513.63;6366401;22;19998;-64
2021/10/07 02:30:43;;;;;;;1.90;1.70;;;;;;;4.32;100.00;96509.09;6365471;22;20009;-64
2021/10/07 02:33:09;;;;;;;1.60;1.50;;;;;;;4.30;100.00;96510.00;6366509;22;20013;-64
2021/10/07 02:35:35;;;;;;;2.08;1.95;;;;;;;4.28;100.00;96509.22;6365830;22;20047;-64
2021/10/07 02:38:01;;;;;;;5.63;2.20;;;;;;;4.25;100.00;96509.41;6365789;22;20010;-64
2021/10/07 02:40:27;;;;;;;3.58;1.90;;;;;;;4.23;100.00;96511.25;6365330;22;20006;-64
2021/10/07 02:42:54;;;;;;;4.03;1.70;;;;;;;4.23;100.00;96513.03;6364402;22;20493;-64
2021/10/07 02:45:20;;;;;;;1.90;1.80;;;;;;;4.24;100.00;96509.50;6365497;22;20007;-64
2021/10/07 02:47:46;;;;;;;2.10;2.00;;;;;;;4.24;100.00;96504.28;6364405;22;20029;-64
2021/10/07 02:50:13;;;;;;;2.85;1.95;;;;;;;4.23;100.00;96500.00;6365796;22;20006;-64
2021/10/07 02:52:38;;;;;;;4.90;2.10;;;;;;;4.25;100.00;96508.56;6365720;22;20002;-64
2021/10/07 02:55:05;;;;;;;4.13;2.00;;;;;;;4.22;100.00;96509.56;6365105;22;20078;-64
2021/10/07 02:57:30;;;;;;;2.30;1.70;;;;;;;4.19;100.00;96501.06;6364704;22;20067;-64
2021/10/07 02:59:56;;;;;;;2.88;1.85;;;;;;;4.19;100.00;96506.28;6365761;22;20002;-64
2021/10/07 03:02:21;;;;;;;2.00;1.88;;;;;;;4.18;100.00;96499.38;6365721;22;20012;-64
2021/10/07 03:04:49;;;;;;;3.25;1.70;;;;;;;4.18;100.00;96494.16;6365531;22;20009;-64
2021/10/07 03:07:14;;;;;;;1.77;1.67;;;;;;;4.15;100.00;96495.19;6365585;22;20002;-64
2021/10/07 03:09:40;;;;;;;7.75;1.85;;;;;;;4.13;100.00;96494.44;6365649;22;20081;-64
2021/10/07 03:12:06;;;;;;;4.63;1.90;;;;;;;4.10;100.00;96492.00;6365071;22;20452;-64
2021/10/07 03:14:32;;;;;;;3.38;1.95;;;;;;;4.06;100.00;96491.31;6365683;22;20077;-64
2021/10/07 03:16:57;;;;;;;3.53;1.70;;;;;;;4.01;100.00;96488.94;6365767;22;20002;-64
2021/10/07 03:19:23;;;;;;;1.80;1.70;;;;;;;4.01;100.00;96495.94;6365774;22;20090;-64
2021/10/07 03:21:48;;;;;;;2.83;1.90;;;;;;;4.03;100.00;96480.19;6364472;22;20002;-64
2021/10/07 03:24:13;;;;;;;2.58;1.90;;;;;;;3.98;100.00;96494.31;6366062;22;20010;-64
2021/10/07 03:26:39;;;;;;;2.78;2.13;;;;;;;3.98;100.00;96489.13;6365456;22;20090;-64
2021/10/07 03:29:04;;;;;;;5.85;1.80;;;;;;;3.96;100.00;96493.56;6365231;22;20003;-64
2021/10/07 03:31:30;;;;;;;4.25;1.88;;;;;;;3.92;100.00;96481.63;6365236;22;20002;-64
2021/10/07 03:33:55;;;;;;;1.85;1.60;;;;;;;3.90;100.00;96488.69;6365903;22;20010;-64
2021/10/07 03:36:21;;;;;;;2.25;1.83;;;;;;;3.87;100.00;96483.66;6364697;22;20041;-64
2021/10/07 03:38:46;;;;;;;1.90;1.80;;;;;;;3.85;100.00;96481.09;6365730;22;20002;-64
2021/10/07 03:41:11;;;;;;;2.08;1.90;;;;;;;3.82;100.00;96480.41;6364814;22;20006;-64
2021/10/07 03:43:37;;;;;;;5.13;2.22;;;;;;;3.80;100.00;96485.72;6365662;22;20469;-64
2021/10/07 03:46:02;;;;;;;2.92;2.45;;;;;;;3.79;100.00;96480.59;6364957;22;20003;-64
2021/10/07 03:48:28;;;;;;;2.05;1.95;;;;;;;3.80;100.00;96487.47;6365652;22;20005;-64
2021/10/07 03:50:53;;;;;;;5.35;2.38;;;;;;;3.78;100.00;96486.72;6364982;22;20518;-64
2021/10/07 03:53:19;;;;;;;1.98;1.70;;;;;;;3.76;100.00;96480.75;6364981;22;20030;-64
2021/10/07 03:55:44;;;;;;;4.03;2.17;;;;;;;3.72;100.00;96480.91;6365470;22;20429;-64
2021/10/07 03:58:09;;;;;;;2.92;2.10;;;;;;;3.68;100.00;96474.19;6364966;22;20010;-65
2021/10/07 04:00:35;;;;;;;4.22;2.20;;;;;;;3.74;100.00;96483.41;6365024;22;20026;-64
2021/10/07 04:03:04;;;;;;;2.00;1.80;;;;;;;3.78;100.00;96478.91;6365714;22;20003;-65
2021/10/07 04:05:30;;;;;;;2.25;2.00;;;;;;;3.79;100.00;96483.19;6365322;22;20009;-65
2021/10/07 04:07:55;;;;;;;2.47;1.90;;;;;;;3.79;100.00;96480.59;6365054;22;20006;-65
2021/10/07 04:10:21;;;;;;;2.28;1.80;;;;;;;3.77;100.00;96490.25;6364285;22;20501;-65
2021/10/07 04:12:46;;;;;;;2.53;2.03;;;;;;;3.78;100.00;96478.91;6365080;22;20002;-65
2021/10/07 04:15:12;;;;;;;1.92;1.80;;;;;;;3.79;100.00;96486.66;6364841;22;20047;-65
2021/10/07 04:17:37;;;;;;;2.58;2.30;;;;;;;3.80;100.00;96482.25;6365016;22;19998;-65
2021/10/07 04:20:04;;;;;;;1.98;1.90;;;;;;;3.82;100.00;96480.41;6365895;22;20010;-66
2021/10/07 04:22:29;;;;;;;3.50;2.10;;;;;;;3.75;100.00;96477.28;6365133;22;20457;-64
2021/10/07 04:24:56;;;;;;;3.83;2.30;;;;;;;3.80;100.00;96470.09;6365361;22;20047;-63
2021/10/07 04:27:21;;;;;;;2.55;2.35;;;;;;;3.79;100.00;96470.16;6365571;22;20085;-64
2021/10/07 04:29:47;;;;;;;2.75;2.08;;;;;;;3.77;100.00;96472.88;6365476;22;20091;-63
2021/10/07 04:32:12;;;;;;;2.45;2.25;;;;;;;3.72;100.00;96464.44;6365600;22;20002;-63
2021/10/07 04:34:37;;;;;;;2.55;2.20;;;;;;;3.71;100.00;96474.03;6365503;22;20081;-63
2021/10/07 04:37:04;;;;;;;2.78;2.20;;;;;;;3.68;100.00;96463.78;6365753;22;20005;-63
2021/10/07 04:39:29;;;;;;;5.35;2.30;;;;;;;3.67;100.00;96467.28;6365127;22;20319;-63
2021/10/07 04:41:55;;;;;;;2.85;2.55;;;;;;;3.63;100.00;96473.56;6365804;22;20025;-63
2021/10/07 04:44:21;;;;;;;3.00;2.70;;;;;;;3.58;100.00;96472.97;6364816;22;20010;-63
2021/10/07 04:46:46;;;;;;;3.08;2.67;;;;;;;3.59;100.00;96466.84;6365403;22;20069;-63
2021/10/07 04:49:12;;;;;;;3.10;2.90;;;;;;;3.58;100.00;96470.38;6365490;22;20002;-63
2021/10/07 04:51:37;;;;;;;4.03;3.13;;;;;;;3.56;100.00;96467.00;6364756;22;20009;-64
2021/10/07 04:54:03;;;;;;;2.60;2.40;;;;;;;3.55;100.00;96465.31;6366476;22;20037;-63
2021/10/07 04:56:28;;;;;;;3.88;2.30;;;;;;;3.52;100.00;96468.09;6364895;22;20009;-63
2021/10/07 04:58:56;;;;;;;3.70;2.42;;;;;;;3.54;100.00;96466.25;6365463;22;19999;-66
2021/10/07 05:01:22;;;;;;;2.22;2.13;;;;;;;3.52;100.00;96460.28;6364329;22;20013;-62
2021/10/07 05:03:50;;;;;;;4.07;3.00;;;;;;;3.54;100.00;96466.25;6364995;22;19998;-62
2021/10/07 05:06:17;;;;;;;2.45;2.30;;;;;;;3.50;100.00;96465.53;6364869;22;20006;-63
2021/10/07 05:08:42;;;;;;;2.55;2.17;;;;;;;3.53;100.00;96459.34;6365077;22;20437;-64
2021/10/07 05:11:08;;;;;;;3.40;2.10;;;;;;;3.57;100.00;96464.34;6365068;22;20055;-64
2021/10/07 05:13:33;;;;;;;2.42;2.33;;;;;;;3.48;100.00;96459.59;6365124;22;20002;-63
2021/10/07 05:15:59;;;;;;;2.40;2.20;;;;;;;3.47;100.00;96465.72;6364349;22;19998;-63
2021/10/07 05:18:24;;;;;;;2.60;2.40;;;;;;;3.54;100.00;96471.44;6365069;22;20002;-62
2021/10/07 05:20:50;;;;;;;4.00;2.35;;;;;;;3.57;100.00;96468.69;6365081;22;20014;-64
2021/10/07 05:23:16;;;;;;;5.72;2.30;;;;;;;3.53;100.00;96459.34;6364931;22;20014;-63
2021/10/07 05:25:42;;;;;;;3.55;2.17;;;;;;;3.51;100.00;96461.19;6365617;22;20009;-65
2021/10/07 05:28:08;;;;;;;2.50;2.30;;;;;;;3.56;100.00;96453.97;6365503;22;20007;-63
2021/10/07 05:30:33;;;;;;;2.53;2.33;;;;;;;3.56;100.00;96460.03;6365056;22;20077;-63
2021/10/07 05:32:59;;;;;;;6.20;2.55;;;;;;;3.64;100.00;96461.41;6367082;22;20576;-64
2021/10/07 05:35:24;;;;;;;2.40;2.30;;;;;;;3.66;100.00;96460.41;6364220;22;20052;-63
2021/10/07 05:37:50;;;;;;;2.03;1.92;;;;;;;3.66;100.00;96455.19;6363907;22;20010;-64
2021/10/07 05:40:15;;;;;;;3.50;2.50;;;;;;;3.64;100.00;96454.41;6366007;22;20010;-66
2021/10/07 05:42:41;;;;;;;2.50;2.40;;;;;;;3.65;100.00;96456.13;6367300;22;20045;-63
2021/10/07 05:45:10;;;;;;;4.80;2.20;;;;;;;3.64;100.00;96464.81;6367044;22;20002;-65
2021/10/07 05:47:37;;;;;;;3.30;2.30;;;;;;;3.65;100.00;96463.09;6364995;22;20015;-67
2021/10/07 05:50:02;;;;;;;3.38;2.60;;;;;;;3.64;100.00;96462.22;6365596;22;20711;-65
2021/10/07 05:52:28;;;;;;;6.05;5.10;;;;;;;3.67;100.00;96456.03;6367170;22;20006;-68
2021/10/07 05:54:53;;;;;;;3.78;3.33;;;;;;;3.68;100.00;96457.72;6364649;22;20110;-65
2021/10/07 05:57:18;;;;;;;6.22;3.55;;;;;;;3.68;100.00;96458.56;6366066;22;20009;-65
2021/10/07 05:59:44;;;;;;;4.63;4.22;;;;;;;3.69;100.00;96451.56;6365621;22;20003;-65
2021/10/07 06:02:09;;;;;;;6.47;4.95;;;;;;;3.69;100.00;96464.59;6366143;22;20006;-66
2021/10/07 06:04:35;;;;;;;6.75;3.92;;;;;;;3.71;100.00;96453.19;6363844;22;20002;-65
2021/10/07 06:07:01;;;;;;;3.58;3.30;;;;;;;3.71;100.00;96454.94;6366508;22;20006;-64
2021/10/07 06:09:26;;;;;;;3.60;3.00;;;;;;;3.70;100.00;96461.91;6366529;22;20002;-64
2021/10/07 06:11:52;;;;;;;2.85;2.53;;;;;;;3.74;100.00;96457.38;6366728;22;20005;-63
2021/10/07 06:14:17;;;;;;;3.58;2.38;;;;;;;3.78;100.00;96461.53;6366368;22;19998;-65
2021/10/07 06:16:43;;;;;;;4.05;2.70;;;;;;;3.74;100.00;96467.78;6366547;22;20067;-64
2021/10/07 06:19:12;;;;;;;2.85;2.35;;;;;;;3.73;100.00;96463.50;6366440;22;20006;-64
2021/10/07 06:21:37;;;;;;;5.43;2.58;;;;;;;3.75;100.00;96459.06;6366279;22;20012;-64
2021/10/07 06:24:03;;;;;;;2.83;2.63;;;;;;;3.80;100.00;96456.22;6366441;22;20077;-64
2021/10/07 06:26:28;;;;;;;3.30;3.10;;;;;;;3.85;100.00;96462.00;6366920;22;20010;-64
2021/10/07 06:28:54;;;;;;;5.63;3.65;;;;;;;3.88;100.00;96456.66;6366710;22;20034;-64
2021/10/07 06:31:19;;;;;;;5.20;4.78;;;;;;;3.90;100.00;96451.34;6366509;22;20010;-63
2021/10/07 06:33:44;;;;;;;5.93;5.22;;;;;;;3.93;100.00;96461.63;6365884;22;20077;-64
2021/10/07 06:36:10;;;;;;;4.97;4.47;;;;;;;3.96;100.00;96467.50;6364863;22;20435;-64
2021/10/07 06:38:35;;;;;;;6.82;4.28;;;;;;;3.99;100.00;96469.94;6365286;22;20002;-66
2021/10/07 06:41:01;;;;;;;4.40;4.00;;;;;;;4.00;100.00;96465.59;6362703;22;20010;-66
2021/10/07 06:43:26;;;;;;;4.40;4.00;;;;;;;4.05;100.00;96474.00;6364926;22;20010;-65
2021/10/07 06:45:52;;;;;;;4.50;3.90;;;;;;;4.09;100.00;96472.03;6365093;22;20073;-66
2021/10/07 06:48:17;;;;;;;4.68;3.72;;;;;;;4.16;100.00;96463.81;6364309;22;20003;-66
2021/10/07 06:50:43;;;;;;;3.95;3.65;;;;;;;4.22;100.00;96470.47;6366838;22;20002;-65
2021/10/07 06:53:09;;;;;;;3.75;3.45;;;;;;;4.24;100.00;96460.81;6365743;22;20551;-65
2021/10/07 06:55:35;;;;;;;7.32;3.25;;;;;;;4.27;100.00;96471.06;6362881;22;20029;-65
2021/10/07 06:58:01;;;;;;;3.35;3.05;;;;;;;4.30;100.00;96470.88;6363313;22;20033;-65
2021/10/07 07:00:26;;;;;;;3.13;2.90;;;;;;;4.36;100.00;96472.31;6364145;22;20048;-66
2021/10/07 07:02:53;;;;;;;3.38;3.08;;;;;;;4.41;100.00;96470.28;6365517;22;19998;-65
2021/10/07 07:05:19;;;;;;;6.28;2.88;;;;;;;4.50;100.00;96470.72;6365771;22;20009;-65
2021/10/07 07:07:44;;;;;;;3.45;2.75;;;;;;;4.59;100.00;96473.66;6365740;22;20002;-65
2021/10/07 07:10:17;;;;;;;5.20;2.70;;;;;;;4.67;100.00;96473.25;6366449;22;20505;-65
2021/10/07 07:12:44;;;;;;;2.72;2.53;;;;;;;4.78;100.00;96475.25;6363561;22;20051;-65
2021/10/07 07:15:09;;;;;;;4.85;2.60;;;;;;;4.87;100.00;96479.94;6365225;22;20358;-65
2021/10/07 07:17:35;;;;;;;2.67;2.40;;;;;;;5.00;100.00;96471.41;6365201;22;20003;-65
2021/10/07 07:20:00;;;;;;;3.15;2.85;;;;;;;5.11;100.00;96474.22;6365954;22;20009;-66
2021/10/07 07:22:26;;;;;;;7.65;5.03;;;;;;;5.23;100.00;96462.22;6365008;22;20014;-66
2021/10/07 07:24:52;;;;;;;5.00;3.45;;;;;;;5.34;100.00;96466.00;6364884;22;20130;-66
2021/10/07 07:27:17;;;;;;;2.63;2.50;;;;;;;5.39;100.00;96475.22;6338334;22;20080;-65
2021/10/07 07:29:43;;;;;;;3.65;2.28;;;;;;;5.39;100.00;96472.59;6365075;22;20009;-65
2021/10/07 07:32:08;;;;;;;3.53;2.50;;;;;;;5.38;100.00;96468.31;6365535;22;20048;-65
2021/10/07 07:34:34;;;;;;;2.20;2.10;;;;;;;5.35;100.00;96462.47;6365121;22;20042;-65
2021/10/07 07:36:59;;;;;;;2.33;2.08;;;;;;;5.32;100.00;96466.06;6365624;22;20503;-65
2021/10/07 07:39:25;;;;;;;2.65;2.17;;;;;;;5.31;100.00;96464.41;6365058;22;20002;-65
2021/10/07 07:41:50;;;;;;;8.55;2.10;;;;;;;5.25;100.00;96462.97;6365592;22;20115;-65
2021/10/07 07:44:15;;;;;;;3.13;2.20;;;;;;;5.23;100.00;96464.00;6364833;22;20449;-65
2021/10/07 07:46:41;;;;;;;2.25;2.10;;;;;;;5.18;100.00;96456.44;6363936;22;20006;-65
2021/10/07 07:49:06;;;;;;;2.67;2.40;;;;;;;5.12;100.00;96465.47;6364729;22;20006;-65
2021/10/07 07:51:35;;;;;;;2.47;2.38;;;;;;;5.10;100.00;96454.28;6364358;22;20044;-65
2021/10/07 07:54:01;;;;;;;5.13;2.70;;;;;;;5.10;100.00;96458.69;6365124;22;20006;-65
2021/10/07 07:56:26;;;;;;;8.80;2.72;;;;;;;5.07;100.00;96456.22;6365255;22;19999;-65
2021/10/07 07:58:53;;;;;;;2.88;2.63;;;;;;;5.08;100.00;96450.06;6365541;22;20002;-65
2021/10/07 08:01:19;;;;;;;2.50;2.30;;;;;;;5.11;100.00;96452.53;6365507;22;20010;-65
2021/10/07 08:03:44;;;;;;;8.43;3.70;;;;;;;5.08;100.00;96445.69;6364580;22;19999;-65
2021/10/07 08:06:10;;;;;;;3.45;2.75;;;;;;;5.10;100.00;96456.88;6365210;22;20035;-65
2021/10/07 08:08:35;;;;;;;6.72;2.90;;;;;;;5.11;100.00;96455.13;6365101;22;20009;-65
2021/10/07 08:11:01;;;;;;;3.50;2.60;;;;;;;5.14;100.00;96450.56;6364758;22;20045;-65
2021/10/07 08:13:26;;;;;;;3.17;2.97;;;;;;;5.18;100.00;96455.59;6364693;22;20006;-65
2021/10/07 08:15:51;;;;;;;5.43;2.88;;;;;;;5.22;100.00;96447.50;6365364;22;20007;-65
2021/10/07 08:18:18;;;;;;;5.40;2.70;;;;;;;5.26;100.00;96448.16;6364055;22;20009;-65
2021/10/07 08:20:44;;;;;;;2.53;2.40;;;;;;;5.31;100.00;96446.13;6363950;22;20009;-65
2021/10/07 08:23:12;;;;;;;3.70;3.33;;;;;;;5.40;100.00;96445.56;6336510;22;20014;-65
2021/10/07 08:25:39;;;;;;;5.25;3.25;;;;;;;5.48;100.00;96444.28;6364663;22;20006;-65
2021/10/07 08:28:06;;;;;;;3.63;3.33;;;;;;;5.58;100.00;96443.63;6365197;22;20077;-65
2021/10/07 08:30:31;;;;;;;5.03;4.00;;;;;;;5.69;100.00;96448.22;6364992;22;20470;-65
2021/10/07 08:32:57;;;;;;;5.43;4.13;;;;;;;5.86;100.00;96448.97;6364510;22;20090;-65
2021/10/07 08:35:23;;;;;;;4.72;3.13;;;;;;;6.06;100.00;96439.91;6364618;22;19998;-65
2021/10/07 08:37:48;;;;;;;2.90;2.63;;;;;;;6.29;100.00;96440.25;6364435;22;20354;-65
2021/10/07 08:40:15;;;;;;;3.47;2.70;;;;;;;6.53;100.00;96448.31;6363980;22;20013;-65
2021/10/07 08:42:41;;;;;;;3.33;3.13;;;;;;;6.83;100.00;96442.03;6364473;22;20002;-65
2021/10/07 08:45:09;;;;;;;3.92;2.60;;;;;;;7.12;100.00;96448.91;6363735;22;20010;-65
2021/10/07 08:47:39;;;;;;;3.63;2.53;;;;;;;7.42;100.00;96443.41;6364442;22;20338;-65
2021/10/07 08:50:05;;;;;;;2.67;2.45;;;;;;;7.74;100.00;96442.16;6364844;22;20034;-65
2021/10/07 08:52:31;;;;;;;3.45;2.80;;;;;;;8.00;100.00;96440.31;6364377;22;20025;-65
2021/10/07 08:54:56;;;;;;;7.82;3.45;;;;;;;8.35;100.00;96436.13;6364733;22;20002;-65
2021/10/07 08:57:22;;;;;;;3.55;2.30;;;;;;;8.72;100.00;96440.53;6364757;22;20009;-65
2021/10/07 08:59:47;;;;;;;5.60;2.35;;;;;;;8.87;99.39;96430.72;6364440;22;20002;-65
2021/10/07 09:02:24;;;;;;;3.60;2.40;;;;;;;9.00;100.00;96430.66;6364819;22;19998;-65
2021/10/07 09:04:52;;;;;;;3.75;2.60;;;;;;;9.18;100.00;96425.81;6364424;22;20461;-65
2021/10/07 09:07:17;;;;;;;3.30;2.40;;;;;;;9.33;100.00;96426.44;6365080;22;19998;-65
2021/10/07 09:09:43;;;;;;;2.60;2.30;;;;;;;9.51;100.00;96423.38;6363901;22;20021;-65
2021/10/07 09:12:14;;;;;;;8.65;2.55;;;;;;;9.56;99.57;96415.94;6364139;22;20034;-65
2021/10/07 09:14:48;;;;;;;4.85;2.20;;;;;;;9.71;100.00;96419.19;6364163;22;20090;-65
2021/10/07 09:17:15;;;;;;;3.90;2.35;;;;;;;9.91;98.05;96417.66;6364513;22;20087;-65
2021/10/07 09:19:43;;;;;;;3.25;2.30;;;;;;;10.09;97.03;96404.84;6364113;22;20646;-65
2021/10/07 09:22:23;;;;;;;3.33;2.30;;;;;;;10.32;93.54;96404.81;6364577;22;20019;-65
2021/10/07 09:24:57;;;;;;;4.72;2.08;;;;;;;10.54;93.81;96401.31;6364781;22;20074;-65
2021/10/07 09:27:30;;;;;;;4.20;1.70;;;;;;;10.57;91.36;96395.81;6364510;22;20005;-65
2021/10/07 09:30:00;;;;;;;2.50;2.00;;;;;;;10.59;88.73;96390.41;6364341;22;20038;-65
2021/10/07 09:32:29;;;;;;;2.47;1.90;;;;;;;10.65;89.74;96389.91;6364867;22;19998;-64
2021/10/07 09:34:57;;;;;;;6.45;1.83;;;;;;;10.64;86.88;96393.53;6364438;22;20007;-64
2021/10/07 09:37:40;;;;;;;2.55;1.35;;;;;;;10.72;85.31;96384.97;6364662;22;20002;-65
2021/10/07 09:40:09;;;;;;;2.88;1.52;;;;;;;10.84;84.77;96378.69;6336002;22;20374;-65
2021/10/07 09:42:36;;;;;;;2.60;1.75;;;;;;;11.16;83.78;96385.75;6364536;22;20438;-64
2021/10/07 09:45:15;;;;;;;2.70;1.95;;;;;;;11.43;82.12;96375.63;6363976;22;20454;-64
2021/10/07 09:47:45;;;;;;;2.65;1.58;;;;;;;11.64;79.59;96383.50;6364725;22;20052;-65
2021/10/07 09:50:22;;;;;;;4.70;1.75;;;;;;;11.80;77.46;96390.94;6364007;22;20002;-64
2021/10/07 09:52:52;;;;;;;1.50;1.40;;;;;;;11.81;76.79;96379.41;6364185;22;20333;-64
2021/10/07 09:55:20;;;;;;;1.40;1.27;;;;;;;11.71;77.40;96379.38;6364794;22;20339;-64
2021/10/07 09:58:01;;;;;;;1.98;1.52;;;;;;;11.54;74.66;96382.59;6364489;22;20006;-64
2021/10/07 10:00:30;;;;;;;1.65;1.55;;;;;;;11.65;76.05;96379.91;6364368;22;20085;-64
2021/10/07 10:02:58;;;;;;;1.63;1.50;;;;;;;11.67;76.59;96382.38;6365009;22;20341;-65
2021/10/07 10:05:25;;;;;;;1.63;1.42;;;;;;;11.81;75.28;96378.56;6335730;22;20010;-64
2021/10/07 10:07:50;;;;;;;1.50;1.40;;;;;;;11.90;75.99;96373.31;6364724;22;20010;-64
2021/10/07 10:10:17;;;;;;;4.82;1.90;;;;;;;12.07;75.92;96383.44;6363735;22;20388;-65
2021/10/07 10:12:42;;;;;;;2.10;1.70;;;;;;;12.12;75.30;96370.66;6363267;22;20002;-64
2021/10/07 10:15:09;;;;;;;7.80;1.90;;;;;;;12.24;74.49;96369.56;6363166;22;20006;-65
2021/10/07 10:17:35;;;;;;;5.18;1.58;;;;;;;12.25;74.94;96371.22;6363759;22;20026;-65
2021/10/07 10:20:15;;;;;;;1.83;1.45;;;;;;;12.30;73.00;96371.69;6364225;22;20062;-62
2021/10/07 10:22:42;;;;;;;5.43;1.70;;;;;;;12.35;73.22;96376.53;6365339;22;20559;-64
2021/10/07 10:25:08;;;;;;;1.73;1.50;;;;;;;12.50;72.81;96368.22;6364497;22;20574;-65
2021/10/07 10:27:51;;;;;;;1.58;1.48;;;;;;;12.47;74.00;96358.75;6365420;22;19998;-64
2021/10/07 10:30:28;;;;;;;2.03;1.40;;;;;;;12.73;71.75;96363.53;6365323;22;20067;-64
2021/10/07 10:32:55;;;;;;;3.92;1.42;;;;;;;12.87;71.13;96368.38;6362900;22;20002;-65
2021/10/07 10:35:32;;;;;;;1.10;1.10;;;;;;;12.73;71.91;96368.81;6365117;22;20010;-65
2021/10/07 10:37:58;;;;;;;6.47;1.65;;;;;;;12.76;71.29;96371.16;6365141;22;20002;-63
2021/10/07 10:40:24;;;;;;;1.42;1.33;;;;;;;12.70;71.45;96364.63;6365996;22;20002;-65
2021/10/07 10:43:18;;;;;;;2.22;1.95;;;;;;;12.76;69.61;96371.16;6364681;22;20009;-65
2021/10/07 10:45:53;;;;;;;2.60;2.40;;;;;;;13.02;70.65;96370.59;6364115;22;20469;-64
2021/10/07 10:48:41;;;;;;;1.95;1.73;;;;;;;13.21;69.56;96368.91;6364257;22;20431;-64
2021/10/07 10:51:11;;;;;;;1.92;1.40;;;;;;;13.32;69.12;96359.00;6364134;22;20006;-64
2021/10/07 10:54:11;;;;;;;1.83;1.48;;;;;;;13.41;67.27;96359.97;6365635;22;20056;-64
2021/10/07 10:56:57;;;;;;;2.58;1.38;;;;;;;13.68;67.35;96349.59;6365104;22;20002;-64
2021/10/07 10:59:25;;;;;;;3.30;1.00;;;;;;;14.06;65.62;96347.75;6365496;22;20642;-65
2021/10/07 11:02:29;;;;;;;2.92;1.30;;;;;;;14.47;65.40;96347.34;6365136;22;20457;-65
2021/10/07 11:04:57;;;;;;;1.50;1.20;;;;;;;14.62;63.83;96339.72;6363636;22;20018;-64
2021/10/07 11:07:27;;;;;;;2.85;1.40;;;;;;;14.64;63.63;96332.47;6365574;22;20073;-64
2021/10/07 11:10:29;;;;;;;1.40;1.30;;;;;;;14.46;62.75;96340.38;6364537;22;20007;-64
2021/10/07 11:12:56;;;;;;;1.55;1.38;;;;;;;14.57;62.37;96341.97;6207953;23;20009;-64
2021/10/07 11:15:26;;;;;;;1.35;1.27;;;;;;;14.35;63.01;96340.59;6334505;22;20007;-64
2021/10/07 11:17:53;;;;;;;2.42;1.42;;;;;;;14.52;61.23;96339.81;6365621;22;20002;-65
2021/10/07 11:20:29;;;;;;;1.52;1.10;;;;;;;14.60;61.75;96341.69;6365237;22;20059;-64
2021/10/07 11:23:03;;;;;;;4.25;1.17;;;;;;;14.88;61.27;96333.69;6364730;22;20014;-65
2021/10/07 11:25:29;;;;;;;2.35;1.17;;;;;;;14.80;60.30;96331.78;6365051;22;20010;-64
2021/10/07 11:27:54;;;;;;;1.40;0.90;;;;;;;14.88;59.30;96328.38;6364044;22;20002;-64
2021/10/07 11:30:22;;;;;;;1.17;1.08;;;;;;;14.86;60.11;96331.16;6365132;22;20478;-64
2021/10/07 11:32:49;;;;;;;1.23;1.13;;;;;;;14.41;60.52;96327.59;6364558;22;20002;-64
2021/10/07 11:35:18;;;;;;;1.50;1.30;;;;;;;14.23;61.28;96332.88;6365261;22;20006;-64
2021/10/07 11:37:53;;;;;;;2.33;0.95;;;;;;;14.24;60.12;96329.22;6364413;22;20047;-64